Time;durP1;ratioP1;P1;durP2;ratioP2;P2;SDS_P1;SDS_P2;PMS_P1;PMS_P2;Temp;Humidity;BMP_temperature;BMP_pressure;BME280_temperature;BME280_humidity;BME280_pressure;Samples;Min_cycle;Max_cycle;Signal;HPM_P1;HPM_P2
2022/09/07 00:01:29;;;;;;;3.15;1.13;;;;;;;;;;5049462;28;20530;-82
2022/09/07 00:03:56;;;;;;;4.80;1.10;;;;;;;;;;5053465;28;20028;-81
2022/09/07 00:06:21;;;;;;;4.80;1.05;;;;;;;;;;5048176;28;20413;-79
2022/09/07 00:08:47;;;;;;;1.88;1.20;;;;;;;;;;5044948;28;20021;-80
2022/09/07 00:11:15;;;;;;;1.30;1.20;;;;;;;;;;5048856;28;20028;-81
2022/09/07 00:13:42;;;;;;;2.53;1.20;;;;;;;;;;5022719;28;20083;-79
2022/09/07 00:16:20;;;;;;;16.65;1.33;;;;;;;;;;5042855;28;20025;-80
2022/09/07 00:18:46;;;;;;;1.27;1.17;;;;;;;;;;5024746;28;20487;-81
2022/09/07 00:21:12;;;;;;;3.53;1.95;;;;;;;;;;5050615;28;20052;-80
2022/09/07 00:23:39;;;;;;;4.28;1.48;;;;;;;;;;5040466;28;20071;-80
2022/09/07 00:26:08;;;;;;;2.85;1.02;;;;;;;;;;5041405;28;20037;-79
2022/09/07 00:28:34;;;;;;;2.72;1.50;;;;;;;;;;5029802;28;20033;-81
2022/09/07 00:31:00;;;;;;;5.85;1.40;;;;;;;;;;5042018;28;20032;-81
2022/09/07 00:33:26;;;;;;;2.38;1.35;;;;;;;;;;5042764;28;20031;-78
2022/09/07 00:35:51;;;;;;;1.20;1.10;;;;;;;;;;5051783;28;20028;-79
2022/09/07 00:38:17;;;;;;;2.53;1.38;;;;;;;;;;5051688;28;20029;-79
2022/09/07 00:40:42;;;;;;;5.03;1.17;;;;;;;;;;5033329;28;20021;-78
2022/09/07 00:43:15;;;;;;;3.22;1.20;;;;;;;;;;5052703;28;20479;-78
2022/09/07 00:45:41;;;;;;;2.15;1.23;;;;;;;;;;5053008;28;20032;-79
2022/09/07 00:48:17;;;;;;;1.85;1.50;;;;;;;;;;5050328;28;20038;-78
2022/09/07 00:50:47;;;;;;;3.45;1.33;;;;;;;;;;5051445;28;20094;-78
2022/09/07 00:53:35;;;;;;;3.92;1.40;;;;;;;;;;5060236;28;20025;-78
2022/09/07 00:56:02;;;;;;;3.10;1.20;;;;;;;;;;5055842;28;20025;-82
2022/09/07 00:58:29;;;;;;;2.53;1.20;;;;;;;;;;5053846;28;20022;-82
2022/09/07 01:00:55;;;;;;;1.50;1.23;;;;;;;;;;5056294;28;20028;-81
2022/09/07 01:03:28;;;;;;;2.00;1.35;;;;;;;;;;5057735;28;20055;-82
2022/09/07 01:06:04;;;;;;;2.42;1.55;;;;;;;;;;5053780;28;20052;-79
2022/09/07 01:08:30;;;;;;;3.75;1.25;;;;;;;;;;5057797;28;20025;-81
2022/09/07 01:10:57;;;;;;;4.53;1.58;;;;;;;;;;5058545;28;20078;-82
2022/09/07 01:13:23;;;;;;;5.78;1.48;;;;;;;;;;5058756;28;20031;-79
2022/09/07 01:16:17;;;;;;;3.22;1.40;;;;;;;;;;5054103;28;20029;-80
2022/09/07 01:19:04;;;;;;;3.75;1.13;;;;;;;;;;5051733;28;20068;-80
2022/09/07 01:21:38;;;;;;;7.07;1.85;;;;;;;;;;5048608;28;20494;-80
2022/09/07 01:24:34;;;;;;;2.45;1.38;;;;;;;;;;5055087;28;20118;-79
2022/09/07 01:27:55;;;;;;;5.03;1.52;;;;;;;;;;5052555;28;20102;-80
2022/09/07 01:30:22;;;;;;;2.42;1.58;;;;;;;;;;5020779;28;20033;-81
2022/09/07 01:33:08;;;;;;;5.15;1.42;;;;;;;;;;5057114;28;20039;-80
2022/09/07 01:35:57;;;;;;;4.38;1.83;;;;;;;;;;5056347;28;20033;-81
2022/09/07 01:38:42;;;;;;;3.03;1.27;;;;;;;;;;5051124;28;20025;-80
2022/09/07 01:41:15;;;;;;;7.68;1.40;;;;;;;;;;5057556;28;20472;-81
2022/09/07 01:43:40;;;;;;;4.32;1.77;;;;;;;;;;5054302;28;20055;-80
2022/09/07 01:46:16;;;;;;;4.90;1.90;;;;;;;;;;5054095;28;20123;-79
2022/09/07 01:48:43;;;;;;;6.97;1.83;;;;;;;;;;5045846;28;20479;-79
2022/09/07 01:51:10;;;;;;;2.40;1.67;;;;;;;;;;5046262;28;20028;-79
2022/09/07 01:53:43;;;;;;;3.50;1.75;;;;;;;;;;5049748;28;20055;-79
2022/09/07 01:56:13;;;;;;;3.05;1.70;;;;;;;;;;5041539;28;20070;-80
2022/09/07 01:58:49;;;;;;;4.38;1.83;;;;;;;;;;5047957;28;20044;-82
2022/09/07 02:01:24;;;;;;;3.95;2.40;;;;;;;;;;5055785;28;20029;-79
2022/09/07 02:04:12;;;;;;;6.45;1.90;;;;;;;;;;5049714;28;20029;-80
2022/09/07 02:06:49;;;;;;;2.45;2.10;;;;;;;;;;5052714;28;20382;-81
2022/09/07 02:09:32;;;;;;;6.40;2.17;;;;;;;;;;5053338;28;20075;-80
2022/09/07 02:12:02;;;;;;;1.70;1.50;;;;;;;;;;5055065;28;20384;-81
2022/09/07 02:14:33;;;;;;;4.63;1.75;;;;;;;;;;5052481;28;20045;-78
2022/09/07 02:17:27;;;;;;;5.83;1.90;;;;;;;;;;5030258;28;20049;-79
2022/09/07 02:20:03;;;;;;;4.05;1.52;;;;;;;;;;5029643;28;20037;-79
2022/09/07 02:22:32;;;;;;;6.53;2.05;;;;;;;;;;5042556;28;20546;-79
2022/09/07 02:25:02;;;;;;;4.75;1.77;;;;;;;;;;5050029;28;20025;-82
2022/09/07 02:27:46;;;;;;;2.85;1.90;;;;;;;;;;5052554;28;20553;-81
2022/09/07 02:30:12;;;;;;;2.88;1.75;;;;;;;;;;5051068;28;20102;-81
2022/09/07 02:32:38;;;;;;;5.57;2.17;;;;;;;;;;5054336;28;20024;-81
2022/09/07 02:35:04;;;;;;;5.22;2.47;;;;;;;;;;5061740;28;20041;-81
2022/09/07 02:37:31;;;;;;;6.43;1.95;;;;;;;;;;5060165;28;20395;-81
2022/09/07 02:39:56;;;;;;;3.13;2.38;;;;;;;;;;5054658;28;20033;-82
2022/09/07 02:42:22;;;;;;;3.42;1.75;;;;;;;;;;5056893;28;20044;-81
2022/09/07 02:44:48;;;;;;;2.65;1.80;;;;;;;;;;5034532;28;20036;-81
2022/09/07 02:47:37;;;;;;;5.40;1.90;;;;;;;;;;5052084;28;20069;-81
2022/09/07 02:50:22;;;;;;;4.20;1.60;;;;;;;;;;5055476;28;20021;-81
2022/09/07 02:53:06;;;;;;;7.43;1.90;;;;;;;;;;5052667;28;20024;-81
2022/09/07 02:55:51;;;;;;;5.05;2.00;;;;;;;;;;5052818;28;20025;-81
2022/09/07 02:58:38;;;;;;;7.63;2.05;;;;;;;;;;5047600;28;20063;-81
2022/09/07 03:01:31;;;;;;;4.75;1.83;;;;;;;;;;5052571;28;20036;-82
2022/09/07 03:04:02;;;;;;;7.68;2.17;;;;;;;;;;5054136;28;20029;-81
2022/09/07 03:06:36;;;;;;;2.75;1.60;;;;;;;;;;5057021;28;20024;-82
2022/09/07 03:09:07;;;;;;;5.82;2.42;;;;;;;;;;5057887;28;20082;-82
2022/09/07 03:11:36;;;;;;;6.03;1.90;;;;;;;;;;5054266;28;20048;-81
2022/09/07 03:14:22;;;;;;;5.03;2.38;;;;;;;;;;5053376;28;20089;-81
2022/09/07 03:16:51;;;;;;;8.70;1.92;;;;;;;;;;5053357;28;20024;-81
2022/09/07 03:19:17;;;;;;;1.85;1.60;;;;;;;;;;5056713;28;20073;-81
2022/09/07 03:21:43;;;;;;;3.47;2.00;;;;;;;;;;5056242;28;20021;-81
2022/09/07 03:24:08;;;;;;;3.85;1.88;;;;;;;;;;5052184;28;20021;-81
2022/09/07 03:26:37;;;;;;;5.10;2.00;;;;;;;;;;5063983;28;20039;-78
2022/09/07 03:29:03;;;;;;;3.63;2.10;;;;;;;;;;5064022;28;20017;-81
2022/09/07 03:31:31;;;;;;;4.80;2.00;;;;;;;;;;5043105;28;20368;-81
2022/09/07 03:33:56;;;;;;;3.88;1.88;;;;;;;;;;5057152;28;20534;-81
2022/09/07 03:36:22;;;;;;;7.15;2.47;;;;;;;;;;5058628;28;20071;-81
2022/09/07 03:38:47;;;;;;;5.03;2.00;;;;;;;;;;5057293;28;20033;-81
2022/09/07 03:41:12;;;;;;;3.70;1.85;;;;;;;;;;5057355;28;20021;-81
2022/09/07 03:43:38;;;;;;;3.80;1.88;;;;;;;;;;5054424;28;20395;-79
2022/09/07 03:46:05;;;;;;;4.07;2.25;;;;;;;;;;5037493;28;20025;-79
2022/09/07 03:48:34;;;;;;;3.40;1.80;;;;;;;;;;5051469;28;20031;-79
2022/09/07 03:51:05;;;;;;;2.85;2.00;;;;;;;;;;5058641;28;20115;-79
2022/09/07 03:53:36;;;;;;;6.38;2.28;;;;;;;;;;5057922;28;20028;-79
2022/09/07 03:56:08;;;;;;;4.07;2.03;;;;;;;;;;5068098;28;20028;-81
2022/09/07 03:58:34;;;;;;;2.20;1.52;;;;;;;;;;5054060;28;20029;-79
2022/09/07 04:01:04;;;;;;;5.65;1.80;;;;;;;;;;5039295;28;20036;-79
2022/09/07 04:03:29;;;;;;;6.15;1.95;;;;;;;;;;5054024;28;20518;-79
2022/09/07 04:05:58;;;;;;;8.00;2.47;;;;;;;;;;5056755;28;20029;-81
2022/09/07 04:08:25;;;;;;;10.30;1.70;;;;;;;;;;5065946;28;20047;-81
2022/09/07 04:10:50;;;;;;;3.65;1.90;;;;;;;;;;5059565;28;20387;-81
2022/09/07 04:13:15;;;;;;;3.25;1.77;;;;;;;;;;5059737;28;20561;-81
2022/09/07 04:15:41;;;;;;;4.38;2.15;;;;;;;;;;5060517;28;20021;-80
2022/09/07 04:18:06;;;;;;;1.83;1.58;;;;;;;;;;5058311;28;20032;-80
2022/09/07 04:20:32;;;;;;;6.32;1.88;;;;;;;;;;5059971;28;20029;-80
2022/09/07 04:22:57;;;;;;;3.60;2.35;;;;;;;;;;5054274;28;20033;-80
2022/09/07 04:25:22;;;;;;;9.05;2.13;;;;;;;;;;5064323;28;20025;-82
2022/09/07 04:27:48;;;;;;;2.22;1.77;;;;;;;;;;5064232;28;20047;-82
2022/09/07 04:30:13;;;;;;;5.10;2.60;;;;;;;;;;5066949;28;20024;-82
2022/09/07 04:32:38;;;;;;;5.07;2.22;;;;;;;;;;5062720;28;20033;-82
2022/09/07 04:35:04;;;;;;;4.80;2.10;;;;;;;;;;5040957;28;20032;-82
2022/09/07 04:37:30;;;;;;;4.28;1.65;;;;;;;;;;5059371;28;20438;-81
2022/09/07 04:39:55;;;;;;;6.82;2.10;;;;;;;;;;5060564;28;20028;-80
2022/09/07 04:42:20;;;;;;;3.90;2.10;;;;;;;;;;5062740;28;20033;-82
2022/09/07 04:44:49;;;;;;;4.78;2.10;;;;;;;;;;5076561;28;20028;-77
2022/09/07 04:47:14;;;;;;;4.60;2.50;;;;;;;;;;5085682;28;20037;-78
2022/09/07 04:49:40;;;;;;;4.97;2.25;;;;;;;;;;5078665;28;20044;-78
2022/09/07 04:52:05;;;;;;;4.50;2.63;;;;;;;;;;5058677;28;20088;-82
2022/09/07 04:54:31;;;;;;;3.30;2.22;;;;;;;;;;5061738;28;20437;-82
2022/09/07 04:56:56;;;;;;;3.97;2.10;;;;;;;;;;5068126;28;20029;-81
2022/09/07 04:59:22;;;;;;;6.20;2.38;;;;;;;;;;5059424;28;20430;-82
2022/09/07 05:01:47;;;;;;;8.77;2.25;;;;;;;;;;5061663;28;20046;-82
2022/09/07 05:04:12;;;;;;;3.83;1.92;;;;;;;;;;5062492;28;20028;-82
2022/09/07 05:06:38;;;;;;;6.70;2.55;;;;;;;;;;5060156;28;20027;-81
2022/09/07 05:09:03;;;;;;;5.78;2.65;;;;;;;;;;5057352;28;20487;-81
2022/09/07 05:11:28;;;;;;;6.80;2.30;;;;;;;;;;5067998;28;20052;-81
2022/09/07 05:13:58;;;;;;;7.80;1.92;;;;;;;;;;5057705;28;20032;-79
2022/09/07 05:16:24;;;;;;;2.95;1.73;;;;;;;;;;5058181;28;20025;-79
2022/09/07 05:18:52;;;;;;;4.68;2.15;;;;;;;;;;5056842;28;20025;-81
2022/09/07 05:21:21;;;;;;;9.18;2.08;;;;;;;;;;5053692;28;20025;-82
2022/09/07 05:23:50;;;;;;;5.55;2.47;;;;;;;;;;5053706;28;20085;-79
2022/09/07 05:26:17;;;;;;;5.15;2.30;;;;;;;;;;5052737;28;20028;-80
2022/09/07 05:28:43;;;;;;;6.85;2.88;;;;;;;;;;5038227;28;20027;-82
2022/09/07 05:31:11;;;;;;;6.05;3.20;;;;;;;;;;5050800;28;20021;-80
2022/09/07 05:33:37;;;;;;;7.80;3.17;;;;;;;;;;5037710;28;20075;-80
2022/09/07 05:36:04;;;;;;;8.43;3.28;;;;;;;;;;5051953;28;20033;-79
2022/09/07 05:38:30;;;;;;;4.65;2.83;;;;;;;;;;5055135;28;20398;-80
2022/09/07 05:40:57;;;;;;;6.25;3.00;;;;;;;;;;5034987;28;20486;-79
2022/09/07 05:43:22;;;;;;;5.78;3.47;;;;;;;;;;5050966;28;20023;-79
2022/09/07 05:45:48;;;;;;;6.85;2.97;;;;;;;;;;5052883;28;20021;-79
2022/09/07 05:48:13;;;;;;;9.13;2.85;;;;;;;;;;5057118;28;20443;-80
2022/09/07 05:50:39;;;;;;;5.88;2.80;;;;;;;;;;5051582;28;20037;-82
2022/09/07 05:53:05;;;;;;;7.32;3.13;;;;;;;;;;5058236;28;20024;-82
2022/09/07 05:55:30;;;;;;;5.03;2.85;;;;;;;;;;5056268;28;20118;-80
2022/09/07 05:57:56;;;;;;;6.30;2.80;;;;;;;;;;5037716;28;20035;-80
2022/09/07 06:00:22;;;;;;;4.97;2.50;;;;;;;;;;5053970;28;20390;-83
2022/09/07 06:02:47;;;;;;;4.40;2.70;;;;;;;;;;5051930;28;20016;-84
2022/09/07 06:05:13;;;;;;;8.00;2.83;;;;;;;;;;5038112;28;20021;-81
2022/09/07 06:07:38;;;;;;;5.03;2.78;;;;;;;;;;5035440;28;20029;-81
2022/09/07 06:10:07;;;;;;;5.03;2.65;;;;;;;;;;5054985;28;20075;-83
2022/09/07 06:12:34;;;;;;;6.40;2.40;;;;;;;;;;5057655;28;20033;-83
2022/09/07 06:15:00;;;;;;;6.03;2.20;;;;;;;;;;5056252;28;20029;-82
2022/09/07 06:17:27;;;;;;;5.50;2.38;;;;;;;;;;5052728;28;20483;-84
2022/09/07 06:19:53;;;;;;;7.20;2.80;;;;;;;;;;5053112;28;20030;-83
2022/09/07 06:22:19;;;;;;;9.25;2.20;;;;;;;;;;5056221;28;20024;-83
2022/09/07 06:24:44;;;;;;;7.25;2.42;;;;;;;;;;5043146;28;20025;-82
2022/09/07 06:27:10;;;;;;;3.72;2.10;;;;;;;;;;5045410;28;20036;-84
2022/09/07 06:29:35;;;;;;;6.55;2.38;;;;;;;;;;5038192;28;20421;-82
2022/09/07 06:32:01;;;;;;;4.10;2.22;;;;;;;;;;5053834;28;20021;-83
2022/09/07 06:34:26;;;;;;;5.57;2.20;;;;;;;;;;5057553;28;20037;-82
2022/09/07 06:36:52;;;;;;;5.80;2.03;;;;;;;;;;5043597;28;20017;-82
2022/09/07 06:39:17;;;;;;;8.57;2.70;;;;;;;;;;5039578;28;20494;-82
2022/09/07 06:41:42;;;;;;;4.20;2.42;;;;;;;;;;5049624;28;20051;-82
2022/09/07 06:44:08;;;;;;;3.97;1.98;;;;;;;;;;5053672;28;20025;-81
2022/09/07 06:46:33;;;;;;;7.53;2.35;;;;;;;;;;5063141;28;20078;-82
2022/09/07 06:48:59;;;;;;;3.65;2.10;;;;;;;;;;5054106;28;20060;-82
2022/09/07 06:51:28;;;;;;;9.57;2.53;;;;;;;;;;5061471;28;20056;-82
2022/09/07 06:53:55;;;;;;;5.07;1.90;;;;;;;;;;5057750;28;20490;-81
2022/09/07 06:56:22;;;;;;;5.30;2.00;;;;;;;;;;5066828;28;20030;-82
2022/09/07 06:58:55;;;;;;;5.40;2.10;;;;;;;;;;5062535;28;20398;-81
2022/09/07 07:01:22;;;;;;;8.00;1.88;;;;;;;;;;5062601;28;20032;-81
2022/09/07 07:03:49;;;;;;;4.93;2.20;;;;;;;;;;5075211;28;20119;-81
2022/09/07 07:06:15;;;;;;;8.55;2.08;;;;;;;;;;5050550;28;20025;-82
2022/09/07 07:08:40;;;;;;;11.07;2.47;;;;;;;;;;5060322;28;20031;-81
2022/09/07 07:11:11;;;;;;;7.38;2.17;;;;;;;;;;5060261;28;20108;-82
2022/09/07 07:13:39;;;;;;;3.00;1.90;;;;;;;;;;5063380;28;20029;-81
2022/09/07 07:16:15;;;;;;;6.72;2.10;;;;;;;;;;5048531;28;20402;-81
2022/09/07 07:18:41;;;;;;;7.82;2.08;;;;;;;;;;5065317;28;20033;-82
2022/09/07 07:21:09;;;;;;;8.57;2.45;;;;;;;;;;5058110;28;20021;-82
2022/09/07 07:23:35;;;;;;;9.27;2.40;;;;;;;;;;5053382;28;20036;-81
2022/09/07 07:26:10;;;;;;;3.40;1.95;;;;;;;;;;5059943;28;20108;-81
2022/09/07 07:28:36;;;;;;;4.82;2.25;;;;;;;;;;5041564;28;20071;-81
2022/09/07 07:31:04;;;;;;;6.55;2.45;;;;;;;;;;5042495;28;20025;-80
2022/09/07 07:33:31;;;;;;;4.70;2.17;;;;;;;;;;5061345;28;20031;-83
2022/09/07 07:36:07;;;;;;;7.72;2.08;;;;;;;;;;5068314;28;20025;-84
2022/09/07 07:38:32;;;;;;;5.57;2.15;;;;;;;;;;5053678;28;20569;-84
2022/09/07 07:40:58;;;;;;;5.88;1.77;;;;;;;;;;5058442;28;20056;-82
2022/09/07 07:43:23;;;;;;;4.53;1.80;;;;;;;;;;5058916;28;20033;-83
2022/09/07 07:45:48;;;;;;;7.32;2.08;;;;;;;;;;5049895;28;20035;-82
2022/09/07 07:48:14;;;;;;;3.30;1.67;;;;;;;;;;5055892;28;20055;-81
2022/09/07 07:50:40;;;;;;;12.73;2.53;;;;;;;;;;5054890;28;20071;-81
2022/09/07 07:53:05;;;;;;;4.55;1.40;;;;;;;;;;5050475;28;20573;-81
2022/09/07 07:55:31;;;;;;;6.28;2.08;;;;;;;;;;5055500;28;20064;-81
2022/09/07 07:57:56;;;;;;;4.47;1.83;;;;;;;;;;5061672;28;20029;-80
2022/09/07 08:00:22;;;;;;;4.65;1.88;;;;;;;;;;5053538;28;20126;-79
2022/09/07 08:02:47;;;;;;;7.68;1.77;;;;;;;;;;5054443;28;20033;-79
2022/09/07 08:05:15;;;;;;;7.15;1.77;;;;;;;;;;5052194;28;20025;-80
2022/09/07 08:07:41;;;;;;;4.30;1.58;;;;;;;;;;5038405;28;20025;-82
2022/09/07 08:10:09;;;;;;;5.25;1.70;;;;;;;;;;5072550;28;20155;-82
2022/09/07 08:12:35;;;;;;;9.10;1.98;;;;;;;;;;5060721;28;20570;-82
2022/09/07 08:15:00;;;;;;;6.38;2.00;;;;;;;;;;5068033;28;20056;-81
2022/09/07 08:17:25;;;;;;;5.07;1.70;;;;;;;;;;5060052;28;20044;-83
2022/09/07 08:19:51;;;;;;;3.70;1.80;;;;;;;;;;5060507;28;20028;-82
2022/09/07 08:22:16;;;;;;;9.70;1.77;;;;;;;;;;5056330;28;20021;-83
2022/09/07 08:24:42;;;;;;;5.28;1.67;;;;;;;;;;5066958;28;20035;-83
2022/09/07 08:27:07;;;;;;;6.22;1.65;;;;;;;;;;5057580;28;20028;-84
2022/09/07 08:29:33;;;;;;;7.50;1.80;;;;;;;;;;5058010;28;20027;-83
2022/09/07 08:31:59;;;;;;;6.70;1.90;;;;;;;;;;5076454;28;20025;-83
2022/09/07 08:34:24;;;;;;;5.10;2.10;;;;;;;;;;5065576;28;20046;-82
2022/09/07 08:36:49;;;;;;;5.68;1.58;;;;;;;;;;5054243;28;20055;-83
2022/09/07 08:39:15;;;;;;;8.85;1.90;;;;;;;;;;5048939;28;20021;-83
2022/09/07 08:42:04;;;;;;;3.05;1.48;;;;;;;;;;5034268;28;20025;-83
2022/09/07 08:44:37;;;;;;;4.55;1.60;;;;;;;;;;5035622;28;20087;-81
2022/09/07 08:47:20;;;;;;;5.18;1.80;;;;;;;;;;5074764;28;20024;-83
2022/09/07 08:50:04;;;;;;;5.60;1.85;;;;;;;;;;5050195;28;20040;-81
2022/09/07 08:52:39;;;;;;;5.13;2.00;;;;;;;;;;5045037;28;20030;-83
2022/09/07 08:55:33;;;;;;;4.65;1.60;;;;;;;;;;5049330;28;20033;-81
2022/09/07 08:58:19;;;;;;;3.45;1.70;;;;;;;;;;5049584;28;20049;-81
2022/09/07 09:00:47;;;;;;;6.13;1.80;;;;;;;;;;5045482;28;20092;-82
2022/09/07 09:03:20;;;;;;;3.50;1.75;;;;;;;;;;5034038;28;20025;-84
2022/09/07 09:06:06;;;;;;;4.55;1.75;;;;;;;;;;5047908;28;20049;-82
2022/09/07 09:08:58;;;;;;;7.85;1.80;;;;;;;;;;5028627;28;20061;-83
2022/09/07 09:11:34;;;;;;;9.32;1.70;;;;;;;;;;5050039;28;20029;-81
2022/09/07 09:14:11;;;;;;;9.38;1.90;;;;;;;;;;5056187;28;20023;-82
2022/09/07 09:16:43;;;;;;;7.78;2.45;;;;;;;;;;5051170;28;20036;-84
2022/09/07 09:19:27;;;;;;;6.20;1.98;;;;;;;;;;5050328;28;20091;-82
2022/09/07 09:22:09;;;;;;;8.45;1.80;;;;;;;;;;5057626;28;20060;-81
2022/09/07 09:24:37;;;;;;;8.85;2.05;;;;;;;;;;5053493;28;20063;-82
2022/09/07 09:27:03;;;;;;;4.82;1.92;;;;;;;;;;5057628;28;20070;-82
2022/09/07 09:29:28;;;;;;;4.85;1.95;;;;;;;;;;5061953;28;20084;-82
2022/09/07 09:31:54;;;;;;;4.07;1.65;;;;;;;;;;5054067;28;20517;-82
2022/09/07 09:34:20;;;;;;;4.35;1.65;;;;;;;;;;5049949;28;20043;-80
2022/09/07 09:36:54;;;;;;;5.90;1.50;;;;;;;;;;5052091;28;20482;-81
2022/09/07 09:39:36;;;;;;;5.82;1.92;;;;;;;;;;5066489;28;20403;-79
2022/09/07 09:42:10;;;;;;;7.95;2.10;;;;;;;;;;5072657;28;20029;-81
2022/09/07 09:44:37;;;;;;;4.88;1.80;;;;;;;;;;5054383;28;20032;-84
2022/09/07 09:47:03;;;;;;;5.60;2.05;;;;;;;;;;5048810;28;20086;-84
2022/09/07 09:49:34;;;;;;;4.53;1.80;;;;;;;;;;5027390;28;20021;-84
2022/09/07 09:52:03;;;;;;;4.38;1.92;;;;;;;;;;5049630;28;20025;-82
2022/09/07 09:54:42;;;;;;;5.32;1.65;;;;;;;;;;5027967;28;20029;-84
2022/09/07 09:57:14;;;;;;;8.48;1.90;;;;;;;;;;5056200;28;20044;-84
2022/09/07 09:59:39;;;;;;;5.22;1.92;;;;;;;;;;5049491;28;20143;-83
2022/09/07 10:02:29;;;;;;;6.15;2.38;;;;;;;;;;5038087;28;20123;-83
2022/09/07 10:04:55;;;;;;;6.38;1.80;;;;;;;;;;5053133;28;20036;-82
2022/09/07 10:07:27;;;;;;;5.53;1.88;;;;;;;;;;5055375;28;20025;-84
2022/09/07 10:09:54;;;;;;;3.78;1.60;;;;;;;;;;5026666;28;20108;-83
2022/09/07 10:12:35;;;;;;;4.57;1.92;;;;;;;;;;5023287;28;20031;-83
2022/09/07 10:15:03;;;;;;;3.45;1.90;;;;;;;;;;5020032;28;20064;-83
2022/09/07 10:17:32;;;;;;;3.60;1.70;;;;;;;;;;5052259;28;20037;-83
2022/09/07 10:20:00;;;;;;;6.70;1.80;;;;;;;;;;5073254;28;20037;-82
2022/09/07 10:22:34;;;;;;;6.57;1.88;;;;;;;;;;5047126;28;20039;-81
2022/09/07 10:25:03;;;;;;;7.00;1.52;;;;;;;;;;5047616;28;20120;-81
2022/09/07 10:27:34;;;;;;;8.15;2.10;;;;;;;;;;5055094;28;20033;-81
2022/09/07 10:30:01;;;;;;;4.97;2.13;;;;;;;;;;5059039;28;20080;-82
2022/09/07 10:32:35;;;;;;;5.30;1.92;;;;;;;;;;5060636;28;20037;-81
2022/09/07 10:35:04;;;;;;;4.53;1.80;;;;;;;;;;5045353;28;20029;-82
2022/09/07 10:37:53;;;;;;;4.00;1.50;;;;;;;;;;5033466;28;20037;-82
2022/09/07 10:40:31;;;;;;;5.10;2.17;;;;;;;;;;5023771;28;20032;-82
2022/09/07 10:43:17;;;;;;;5.25;1.88;;;;;;;;;;5040500;28;20037;-81
2022/09/07 10:45:52;;;;;;;4.70;1.83;;;;;;;;;;5062984;28;20048;-79
2022/09/07 10:48:27;;;;;;;7.03;1.83;;;;;;;;;;5055513;28;20056;-79
2022/09/07 10:50:56;;;;;;;5.63;1.60;;;;;;;;;;5025633;28;20022;-81
2022/09/07 10:53:31;;;;;;;6.53;1.90;;;;;;;;;;5035086;28;20384;-82
2022/09/07 10:56:24;;;;;;;5.03;1.65;;;;;;;;;;5062589;28;20092;-83
2022/09/07 10:59:20;;;;;;;4.97;1.98;;;;;;;;;;5035985;28;20036;-81
2022/09/07 11:02:10;;;;;;;7.90;1.90;;;;;;;;;;5045303;28;20071;-81
2022/09/07 11:04:38;;;;;;;5.25;2.05;;;;;;;;;;5044002;28;20032;-80
2022/09/07 11:07:58;;;;;;;3.05;1.67;;;;;;;;;;5045907;28;20114;-82
2022/09/07 11:10:49;;;;;;;5.97;1.92;;;;;;;;;;4951726;28;20063;-81
2022/09/07 11:13:21;;;;;;;4.30;1.80;;;;;;;;;;5049010;28;20013;-82
2022/09/07 11:16:13;;;;;;;4.50;2.20;;;;;;;;;;5052137;28;20033;-81
2022/09/07 11:19:09;;;;;;;7.55;1.92;;;;;;;;;;5048835;28;20029;-82
2022/09/07 11:21:40;;;;;;;2.58;1.40;;;;;;;;;;5048968;28;20495;-81
2022/09/07 11:24:21;;;;;;;5.30;1.67;;;;;;;;;;5048791;28;20033;-83
2022/09/07 11:26:59;;;;;;;4.47;1.90;;;;;;;;;;5039577;28;20037;-80
2022/09/07 11:29:37;;;;;;;2.83;1.70;;;;;;;;;;5037711;28;20147;-81
2022/09/07 11:32:06;;;;;;;5.35;1.95;;;;;;;;;;5039062;28;20037;-80
2022/09/07 11:34:46;;;;;;;5.18;1.88;;;;;;;;;;5045783;28;20036;-80
2022/09/07 11:37:32;;;;;;;2.85;1.42;;;;;;;;;;5042754;28;20044;-80
2022/09/07 11:40:08;;;;;;;3.60;1.73;;;;;;;;;;5035615;28;20605;-82
2022/09/07 11:42:46;;;;;;;8.40;1.83;;;;;;;;;;5013177;28;20068;-81
2022/09/07 11:45:21;;;;;;;2.70;1.70;;;;;;;;;;5035505;28;20059;-80
2022/09/07 11:48:02;;;;;;;9.55;1.80;;;;;;;;;;5029488;28;20149;-80
2022/09/07 11:50:34;;;;;;;3.88;1.58;;;;;;;;;;5032976;28;20021;-79
2022/09/07 11:53:02;;;;;;;6.07;1.83;;;;;;;;;;5036289;28;20029;-79
2022/09/07 11:55:31;;;;;;;7.28;1.60;;;;;;;;;;5033238;28;20123;-80
2022/09/07 11:58:08;;;;;;;6.88;1.80;;;;;;;;;;5019012;28;20037;-81
2022/09/07 12:00:54;;;;;;;8.25;1.55;;;;;;;;;;5035323;28;20022;-80
2022/09/07 12:04:03;;;;;;;6.18;1.60;;;;;;;;;;5033130;28;20084;-81
2022/09/07 12:06:37;;;;;;;5.70;1.63;;;;;;;;;;5240253;22;20076;-79
2022/09/07 12:09:37;;;;;;;2.88;1.70;;;;;;;;;;5003586;28;20558;-80
2022/09/07 12:12:37;;;;;;;3.42;1.70;;;;;;;;;;5003540;28;20065;-80
2022/09/07 12:15:25;;;;;;;4.63;1.40;;;;;;;;;;5006196;28;20038;-80
2022/09/07 12:18:09;;;;;;;5.28;1.58;;;;;;;;;;5024710;28;20071;-81
2022/09/07 12:20:38;;;;;;;4.90;1.30;;;;;;;;;;5029286;28;20030;-81
2022/09/07 12:23:05;;;;;;;6.10;1.60;;;;;;;;;;4987884;28;20108;-81
2022/09/07 12:25:33;;;;;;;6.40;1.40;;;;;;;;;;4988920;28;20038;-80
2022/09/07 12:27:59;;;;;;;4.57;1.63;;;;;;;;;;4990746;28;20471;-80
2022/09/07 12:30:24;;;;;;;3.42;1.60;;;;;;;;;;4992117;28;21811;-82
2022/09/07 12:32:50;;;;;;;5.28;1.17;;;;;;;;;;4993321;28;20040;-80
2022/09/07 12:35:25;;;;;;;5.68;1.80;;;;;;;;;;5006299;28;20063;-80
2022/09/07 12:37:50;;;;;;;4.07;1.25;;;;;;;;;;5012897;28;20033;-81
2022/09/07 12:40:32;;;;;;;6.82;1.40;;;;;;;;;;4997198;28;20029;-81
2022/09/07 12:43:12;;;;;;;5.00;1.60;;;;;;;;;;4995429;28;20034;-80
2022/09/07 12:45:38;;;;;;;3.80;1.47;;;;;;;;;;4997456;28;21072;-80
2022/09/07 12:48:09;;;;;;;4.38;1.38;;;;;;;;;;4997864;28;20034;-80
2022/09/07 12:50:48;;;;;;;4.53;1.63;;;;;;;;;;5010045;28;20056;-80
2022/09/07 12:53:35;;;;;;;3.63;1.40;;;;;;;;;;5007027;28;20026;-80
2022/09/07 12:56:22;;;;;;;4.32;1.60;;;;;;;;;;5034558;28;20109;-80
2022/09/07 12:59:13;;;;;;;5.07;1.40;;;;;;;;;;5021769;28;20033;-80
2022/09/07 13:01:54;;;;;;;3.20;1.23;;;;;;;;;;5018481;28;20038;-79
2022/09/07 13:04:31;;;;;;;3.50;1.27;;;;;;;;;;5011968;28;20045;-80
2022/09/07 13:07:28;;;;;;;2.40;1.30;;;;;;;;;;5002085;28;20068;-81
2022/09/07 13:09:56;;;;;;;2.53;1.45;;;;;;;;;;5001645;28;20038;-81
2022/09/07 13:12:21;;;;;;;4.00;1.50;;;;;;;;;;4995674;28;20516;-81
2022/09/07 13:14:52;;;;;;;3.08;1.42;;;;;;;;;;4996893;28;20072;-80
2022/09/07 13:17:37;;;;;;;2.67;1.95;;;;;;;;;;4994624;28;20041;-80
2022/09/07 13:20:16;;;;;;;2.92;1.05;;;;;;;;;;4977845;28;20038;-79
2022/09/07 13:22:42;;;;;;;9.57;1.40;;;;;;;;;;4985774;28;20057;-80
2022/09/07 13:25:20;;;;;;;3.22;1.20;;;;;;;;;;4995296;28;20527;-80
2022/09/07 13:28:22;;;;;;;4.30;1.40;;;;;;;;;;5002352;28;20088;-79
2022/09/07 13:30:58;;;;;;;;;;;;;;;;;;5001104;28;20036;-80
2022/09/07 13:33:24;;;;;;;1.75;1.33;;;;;;;;;;5006852;28;19933;-80
2022/09/07 13:35:59;;;;;;;5.47;1.50;;;;;;;;;;5000676;28;20472;-80
2022/09/07 13:38:25;;;;;;;3.33;1.50;;;;;;;;;;4995886;28;20049;-80
2022/09/07 13:40:53;;;;;;;3.75;1.20;;;;;;;;;;4990929;28;20551;-80
2022/09/07 13:43:21;;;;;;;3.50;1.40;;;;;;;;;;4997276;28;20040;-79
2022/09/07 13:45:52;;;;;;;4.32;1.33;;;;;;;;;;5018722;28;20365;-80
2022/09/07 13:48:24;;;;;;;3.05;1.58;;;;;;;;;;5016952;28;20480;-80
2022/09/07 13:51:15;;;;;;;4.15;1.70;;;;;;;;;;5007326;28;20073;-79
2022/09/07 13:53:43;;;;;;;5.90;1.50;;;;;;;;;;5015804;28;20033;-80
2022/09/07 13:56:45;;;;;;;4.15;1.20;;;;;;;;;;5019811;28;20121;-79
2022/09/07 13:59:21;;;;;;;3.30;1.17;;;;;;;;;;5020992;28;20399;-80
2022/09/07 14:01:49;;;;;;;2.75;1.20;;;;;;;;;;5015275;28;20033;-80
2022/09/07 14:04:36;;;;;;;4.68;1.35;;;;;;;;;;5014267;28;20484;-80
2022/09/07 14:07:02;;;;;;;3.33;1.63;;;;;;;;;;4985850;28;20049;-82
2022/09/07 14:09:28;;;;;;;4.97;1.58;;;;;;;;;;4992457;28;20034;-80
2022/09/07 14:11:54;;;;;;;3.35;1.23;;;;;;;;;;4991602;28;20029;-81
2022/09/07 14:14:28;;;;;;;2.25;1.25;;;;;;;;;;4993039;28;20030;-80
2022/09/07 14:16:53;;;;;;;3.25;1.40;;;;;;;;;;4997676;28;20034;-80
2022/09/07 14:19:24;;;;;;;8.80;1.53;;;;;;;;;;5001389;28;20060;-79
2022/09/07 14:21:55;;;;;;;3.83;1.60;;;;;;;;;;5008900;28;20272;-79
2022/09/07 14:24:29;;;;;;;4.55;1.42;;;;;;;;;;5014885;28;20042;-79
2022/09/07 14:26:54;;;;;;;2.45;1.10;;;;;;;;;;4996793;28;20038;-80
2022/09/07 14:29:22;;;;;;;4.30;1.40;;;;;;;;;;4987362;28;20080;-80
2022/09/07 14:31:48;;;;;;;4.90;1.58;;;;;;;;;;4992634;28;20030;-80
2022/09/07 14:34:17;;;;;;;2.47;1.27;;;;;;;;;;4996151;28;20049;-79
2022/09/07 14:36:45;;;;;;;3.17;1.40;;;;;;;;;;4993355;28;20029;-79
2022/09/07 14:39:12;;;;;;;5.45;1.83;;;;;;;;;;4993200;28;20177;-79
2022/09/07 14:41:40;;;;;;;6.07;1.63;;;;;;;;;;4990980;28;20457;-79
2022/09/07 14:44:05;;;;;;;3.20;1.30;;;;;;;;;;5030768;28;20035;-79
2022/09/07 14:46:32;;;;;;;2.30;1.27;;;;;;;;;;5027018;28;20108;-79
2022/09/07 14:49:17;;;;;;;6.07;1.50;;;;;;;;;;5033817;28;20097;-79
2022/09/07 14:51:44;;;;;;;4.95;1.30;;;;;;;;;;5018376;28;20038;-79
2022/09/07 14:54:26;;;;;;;5.63;1.33;;;;;;;;;;5022744;28;20022;-79
2022/09/07 14:57:23;;;;;;;4.15;1.27;;;;;;;;;;5020471;28;20025;-79
2022/09/07 14:59:49;;;;;;;2.95;1.17;;;;;;;;;;5015905;28;20075;-79
2022/09/07 15:02:17;;;;;;;2.30;1.15;;;;;;;;;;5019902;28;20108;-79
2022/09/07 15:04:43;;;;;;;1.83;1.05;;;;;;;;;;5017131;28;20042;-79
2022/09/07 15:08:05;;;;;;;4.25;1.15;;;;;;;;;;4991780;28;20038;-80
2022/09/07 15:10:35;;;;;;;3.63;1.20;;;;;;;;;;4991748;28;20042;-81
2022/09/07 15:13:02;;;;;;;3.60;1.17;;;;;;;;;;4988501;28;20039;-80